Terminal Aerodrome Forecast
Issued by NWS Tampa Bay Area, FL

Home | Current Version | Previous Version | Text Only | Print | Product List | Glossary On
Versions: 1 2 3 4 5 6 7 8 9 10 11 12 13 14 15 16 17 18 19 20 21 22 23 24 25 26 27 28 29
076
FTUS42 KTBW 070857 AAA
TAFTPA
TAF AMD
KTPA 070857Z 0709/0806 VRB03KT 6SM BR SCT025
      TEMPO 0709/0713 5SM BR FEW007 BKN020
     FM071300 VRB04KT P6SM SCT015 SCT250
     FM071900 30006KT P6SM SCT250=

USA.gov is the U.S. government's official web portal to all federal, state and local government web resources and services.